sensor_id;sensor_type;location;lat;lon;timestamp;temperature;humidity
9323;DHT22;4700;48.822;9.270;2023-03-13T00:00:39;8.40;1.00
9323;DHT22;4700;48.822;9.270;2023-03-13T00:03:27;8.30;1.00
9323;DHT22;4700;48.822;9.270;2023-03-13T00:06:13;8.20;1.00
9323;DHT22;4700;48.822;9.270;2023-03-13T00:09:00;8.20;1.00
9323;DHT22;4700;48.822;9.270;2023-03-13T00:11:47;8.20;1.00
9323;DHT22;4700;48.822;9.270;2023-03-13T00:14:33;8.20;1.00
9323;DHT22;4700;48.822;9.270;2023-03-13T00:17:18;8.60;1.00
9323;DHT22;4700;48.822;9.270;2023-03-13T00:20:05;8.30;1.00
9323;DHT22;4700;48.822;9.270;2023-03-13T00:22:52;8.10;1.00
9323;DHT22;4700;48.822;9.270;2023-03-13T00:25:38;8.30;1.00
9323;DHT22;4700;48.822;9.270;2023-03-13T00:28:27;8.10;1.00
9323;DHT22;4700;48.822;9.270;2023-03-13T00:31:15;8.30;1.00
9323;DHT22;4700;48.822;9.270;2023-03-13T00:34:03;8.40;1.00
9323;DHT22;4700;48.822;9.270;2023-03-13T00:36:49;8.40;1.00
9323;DHT22;4700;48.822;9.270;2023-03-13T00:39:37;8.50;1.00
9323;DHT22;4700;48.822;9.270;2023-03-13T00:42:23;8.60;1.00
9323;DHT22;4700;48.822;9.270;2023-03-13T00:45:10;9.00;1.00
9323;DHT22;4700;48.822;9.270;2023-03-13T00:47:56;8.70;1.00
9323;DHT22;4700;48.822;9.270;2023-03-13T00:50:42;8.70;1.00
9323;DHT22;4700;48.822;9.270;2023-03-13T00:53:28;8.70;1.00
9323;DHT22;4700;48.822;9.270;2023-03-13T00:56:15;8.90;1.00
9323;DHT22;4700;48.822;9.270;2023-03-13T00:59:01;8.90;1.00
9323;DHT22;4700;48.822;9.270;2023-03-13T01:01:48;8.90;1.00
9323;DHT22;4700;48.822;9.270;2023-03-13T01:04:34;9.00;1.00
9323;DHT22;4700;48.822;9.270;2023-03-13T01:07:20;9.00;1.00
9323;DHT22;4700;48.822;9.270;2023-03-13T01:10:07;9.10;1.00
9323;DHT22;4700;48.822;9.270;2023-03-13T01:12:52;9.10;1.00
9323;DHT22;4700;48.822;9.270;2023-03-13T01:15:38;9.10;1.00
9323;DHT22;4700;48.822;9.270;2023-03-13T01:18:25;9.20;1.00
9323;DHT22;4700;48.822;9.270;2023-03-13T01:21:12;9.20;1.00
9323;DHT22;4700;48.822;9.270;2023-03-13T01:23:57;9.30;1.00
9323;DHT22;4700;48.822;9.270;2023-03-13T01:26:43;9.30;1.00
9323;DHT22;4700;48.822;9.270;2023-03-13T01:29:29;9.30;1.00
9323;DHT22;4700;48.822;9.270;2023-03-13T01:32:15;9.30;1.00
9323;DHT22;4700;48.822;9.270;2023-03-13T01:35:05;9.40;1.00
9323;DHT22;4700;48.822;9.270;2023-03-13T01:37:50;9.60;1.00
9323;DHT22;4700;48.822;9.270;2023-03-13T01:40:41;9.50;1.00
9323;DHT22;4700;48.822;9.270;2023-03-13T01:43:29;9.60;1.00
9323;DHT22;4700;48.822;9.270;2023-03-13T01:46:16;9.60;1.00
9323;DHT22;4700;48.822;9.270;2023-03-13T01:49:06;9.60;1.00
9323;DHT22;4700;48.822;9.270;2023-03-13T01:51:58;9.60;1.00
9323;DHT22;4700;48.822;9.270;2023-03-13T01:54:47;9.70;1.00
9323;DHT22;4700;48.822;9.270;2023-03-13T01:57:38;9.70;1.00
9323;DHT22;4700;48.822;9.270;2023-03-13T02:00:26;9.70;1.00
9323;DHT22;4700;48.822;9.270;2023-03-13T02:03:14;9.70;1.00
9323;DHT22;4700;48.822;9.270;2023-03-13T02:06:01;9.80;1.00
9323;DHT22;4700;48.822;9.270;2023-03-13T02:08:52;9.90;1.00
9323;DHT22;4700;48.822;9.270;2023-03-13T02:11:45;9.80;1.00
9323;DHT22;4700;48.822;9.270;2023-03-13T02:14:34;9.80;1.00
9323;DHT22;4700;48.822;9.270;2023-03-13T02:17:21;9.80;1.00
9323;DHT22;4700;48.822;9.270;2023-03-13T02:20:10;9.60;1.00
9323;DHT22;4700;48.822;9.270;2023-03-13T02:23:01;9.80;1.00
9323;DHT22;4700;48.822;9.270;2023-03-13T02:25:50;9.90;1.00
9323;DHT22;4700;48.822;9.270;2023-03-13T02:28:37;9.90;1.00
9323;DHT22;4700;48.822;9.270;2023-03-13T02:31:23;10.40;1.00
9323;DHT22;4700;48.822;9.270;2023-03-13T02:34:12;10.00;1.00
9323;DHT22;4700;48.822;9.270;2023-03-13T02:37:00;10.10;1.00
9323;DHT22;4700;48.822;9.270;2023-03-13T02:39:49;10.10;1.00
9323;DHT22;4700;48.822;9.270;2023-03-13T02:42:37;10.20;1.00
9323;DHT22;4700;48.822;9.270;2023-03-13T02:45:25;10.20;1.00
9323;DHT22;4700;48.822;9.270;2023-03-13T02:48:10;10.30;1.00
9323;DHT22;4700;48.822;9.270;2023-03-13T02:50:56;10.20;1.00
9323;DHT22;4700;48.822;9.270;2023-03-13T02:53:42;10.30;1.00
9323;DHT22;4700;48.822;9.270;2023-03-13T02:56:31;10.10;1.00
9323;DHT22;4700;48.822;9.270;2023-03-13T02:59:19;10.10;1.00
9323;DHT22;4700;48.822;9.270;2023-03-13T03:02:05;10.10;1.00
9323;DHT22;4700;48.822;9.270;2023-03-13T03:04:53;10.10;1.00
9323;DHT22;4700;48.822;9.270;2023-03-13T03:07:38;10.10;1.00
9323;DHT22;4700;48.822;9.270;2023-03-13T03:10:24;9.80;1.00
9323;DHT22;4700;48.822;9.270;2023-03-13T03:13:10;10.10;1.00
9323;DHT22;4700;48.822;9.270;2023-03-13T03:15:57;10.20;1.00
9323;DHT22;4700;48.822;9.270;2023-03-13T03:18:43;10.20;1.00
9323;DHT22;4700;48.822;9.270;2023-03-13T03:21:29;10.20;1.00
9323;DHT22;4700;48.822;9.270;2023-03-13T03:24:14;10.40;1.00
9323;DHT22;4700;48.822;9.270;2023-03-13T03:27:00;10.40;1.00
9323;DHT22;4700;48.822;9.270;2023-03-13T03:29:46;10.70;1.00
9323;DHT22;4700;48.822;9.270;2023-03-13T03:32:34;10.30;1.00
9323;DHT22;4700;48.822;9.270;2023-03-13T03:35:19;10.30;1.00
9323;DHT22;4700;48.822;9.270;2023-03-13T03:38:05;10.30;1.00
9323;DHT22;4700;48.822;9.270;2023-03-13T03:40:51;10.30;1.00
9323;DHT22;4700;48.822;9.270;2023-03-13T03:43:37;10.40;1.00
9323;DHT22;4700;48.822;9.270;2023-03-13T03:46:22;10.30;1.00
9323;DHT22;4700;48.822;9.270;2023-03-13T03:49:10;10.40;1.00
9323;DHT22;4700;48.822;9.270;2023-03-13T03:51:55;10.50;1.00
9323;DHT22;4700;48.822;9.270;2023-03-13T03:54:41;10.50;1.00
9323;DHT22;4700;48.822;9.270;2023-03-13T03:57:27;10.50;1.00
9323;DHT22;4700;48.822;9.270;2023-03-13T04:00:13;10.50;1.00
9323;DHT22;4700;48.822;9.270;2023-03-13T04:02:59;10.50;1.00
9323;DHT22;4700;48.822;9.270;2023-03-13T04:05:46;10.50;1.00
9323;DHT22;4700;48.822;9.270;2023-03-13T04:08:32;10.50;1.00
9323;DHT22;4700;48.822;9.270;2023-03-13T04:11:18;10.60;1.00
9323;DHT22;4700;48.822;9.270;2023-03-13T04:14:05;10.70;1.00
9323;DHT22;4700;48.822;9.270;2023-03-13T04:16:51;10.70;1.00
9323;DHT22;4700;48.822;9.270;2023-03-13T04:19:37;10.70;1.00
9323;DHT22;4700;48.822;9.270;2023-03-13T04:22:24;11.20;1.00
9323;DHT22;4700;48.822;9.270;2023-03-13T04:25:10;10.80;1.00
9323;DHT22;4700;48.822;9.270;2023-03-13T04:27:56;10.90;1.00
9323;DHT22;4700;48.822;9.270;2023-03-13T04:30:41;11.00;1.00
9323;DHT22;4700;48.822;9.270;2023-03-13T04:33:28;11.00;1.00
9323;DHT22;4700;48.822;9.270;2023-03-13T04:36:13;11.10;1.00
9323;DHT22;4700;48.822;9.270;2023-03-13T04:39:00;11.20;1.00
9323;DHT22;4700;48.822;9.270;2023-03-13T04:41:46;11.20;1.00
9323;DHT22;4700;48.822;9.270;2023-03-13T04:44:32;11.60;1.00
9323;DHT22;4700;48.822;9.270;2023-03-13T04:47:18;11.70;1.00
9323;DHT22;4700;48.822;9.270;2023-03-13T04:50:05;11.90;1.00
9323;DHT22;4700;48.822;9.270;2023-03-13T04:52:51;12.00;1.00
9323;DHT22;4700;48.822;9.270;2023-03-13T04:55:38;11.90;1.00
9323;DHT22;4700;48.822;9.270;2023-03-13T04:58:24;12.30;1.00
9323;DHT22;4700;48.822;9.270;2023-03-13T05:01:10;12.10;1.00
9323;DHT22;4700;48.822;9.270;2023-03-13T05:03:56;12.00;1.00
9323;DHT22;4700;48.822;9.270;2023-03-13T05:06:42;12.10;1.00
9323;DHT22;4700;48.822;9.270;2023-03-13T05:09:28;12.10;1.00
9323;DHT22;4700;48.822;9.270;2023-03-13T05:12:15;12.10;1.00
9323;DHT22;4700;48.822;9.270;2023-03-13T05:15:03;12.10;1.00
9323;DHT22;4700;48.822;9.270;2023-03-13T05:17:49;12.10;1.00
9323;DHT22;4700;48.822;9.270;2023-03-13T05:20:34;12.10;1.00
9323;DHT22;4700;48.822;9.270;2023-03-13T05:23:20;12.10;1.00
9323;DHT22;4700;48.822;9.270;2023-03-13T05:26:06;12.10;1.00
9323;DHT22;4700;48.822;9.270;2023-03-13T05:28:54;12.20;1.00
9323;DHT22;4700;48.822;9.270;2023-03-13T05:31:39;12.10;1.00
9323;DHT22;4700;48.822;9.270;2023-03-13T05:34:26;12.20;1.00
9323;DHT22;4700;48.822;9.270;2023-03-13T05:37:11;12.20;1.00
9323;DHT22;4700;48.822;9.270;2023-03-13T05:39:57;12.10;1.00
9323;DHT22;4700;48.822;9.270;2023-03-13T05:42:44;12.10;1.00
9323;DHT22;4700;48.822;9.270;2023-03-13T05:45:31;12.10;1.00
9323;DHT22;4700;48.822;9.270;2023-03-13T05:48:18;12.10;1.00
9323;DHT22;4700;48.822;9.270;2023-03-13T05:51:04;12.10;1.00
9323;DHT22;4700;48.822;9.270;2023-03-13T05:53:50;12.30;1.00
9323;DHT22;4700;48.822;9.270;2023-03-13T05:56:36;12.20;1.00
9323;DHT22;4700;48.822;9.270;2023-03-13T05:59:22;12.20;1.00
9323;DHT22;4700;48.822;9.270;2023-03-13T06:02:09;12.20;1.00
9323;DHT22;4700;48.822;9.270;2023-03-13T06:04:55;12.20;1.00
9323;DHT22;4700;48.822;9.270;2023-03-13T06:07:41;12.30;1.00
9323;DHT22;4700;48.822;9.270;2023-03-13T06:10:27;12.30;1.00
9323;DHT22;4700;48.822;9.270;2023-03-13T06:13:13;12.30;1.00
9323;DHT22;4700;48.822;9.270;2023-03-13T06:15:58;12.30;1.00
9323;DHT22;4700;48.822;9.270;2023-03-13T06:18:46;12.40;1.00
9323;DHT22;4700;48.822;9.270;2023-03-13T06:21:31;12.50;1.00
9323;DHT22;4700;48.822;9.270;2023-03-13T06:24:17;12.50;1.00
9323;DHT22;4700;48.822;9.270;2023-03-13T06:27:03;12.60;1.00
9323;DHT22;4700;48.822;9.270;2023-03-13T06:29:52;12.60;1.00
9323;DHT22;4700;48.822;9.270;2023-03-13T06:32:37;12.20;1.00
9323;DHT22;4700;48.822;9.270;2023-03-13T06:35:25;12.70;1.00
9323;DHT22;4700;48.822;9.270;2023-03-13T06:38:10;12.90;1.00
9323;DHT22;4700;48.822;9.270;2023-03-13T06:40:57;12.80;1.00
9323;DHT22;4700;48.822;9.270;2023-03-13T06:43:42;13.00;1.00
9323;DHT22;4700;48.822;9.270;2023-03-13T06:46:28;13.10;1.00
9323;DHT22;4700;48.822;9.270;2023-03-13T06:49:14;13.20;1.00
9323;DHT22;4700;48.822;9.270;2023-03-13T06:52:01;13.40;1.00
9323;DHT22;4700;48.822;9.270;2023-03-13T06:54:47;13.50;1.00
9323;DHT22;4700;48.822;9.270;2023-03-13T06:57:33;13.40;1.00
9323;DHT22;4700;48.822;9.270;2023-03-13T07:00:20;13.40;1.00
9323;DHT22;4700;48.822;9.270;2023-03-13T07:03:07;13.40;1.00
9323;DHT22;4700;48.822;9.270;2023-03-13T07:05:58;13.30;1.00
9323;DHT22;4700;48.822;9.270;2023-03-13T07:08:45;13.30;1.00
9323;DHT22;4700;48.822;9.270;2023-03-13T07:11:32;13.20;1.00
9323;DHT22;4700;48.822;9.270;2023-03-13T07:14:17;13.30;1.00
9323;DHT22;4700;48.822;9.270;2023-03-13T07:16:48;13.20;1.00
9323;DHT22;4700;48.822;9.270;2023-03-13T07:19:33;13.30;1.00
9323;DHT22;4700;48.822;9.270;2023-03-13T07:22:19;13.30;1.00
9323;DHT22;4700;48.822;9.270;2023-03-13T07:25:08;13.20;1.00
9323;DHT22;4700;48.822;9.270;2023-03-13T07:27:53;13.30;1.00
9323;DHT22;4700;48.822;9.270;2023-03-13T07:30:40;14.80;1.00
9323;DHT22;4700;48.822;9.270;2023-03-13T07:33:28;13.30;1.00
9323;DHT22;4700;48.822;9.270;2023-03-13T07:36:16;13.20;1.00
9323;DHT22;4700;48.822;9.270;2023-03-13T07:39:03;13.20;1.00
9323;DHT22;4700;48.822;9.270;2023-03-13T07:41:50;13.20;1.00
9323;DHT22;4700;48.822;9.270;2023-03-13T07:44:35;13.30;1.00
9323;DHT22;4700;48.822;9.270;2023-03-13T07:47:21;13.20;1.00
9323;DHT22;4700;48.822;9.270;2023-03-13T07:50:08;13.20;1.00
9323;DHT22;4700;48.822;9.270;2023-03-13T07:52:54;13.30;1.00
9323;DHT22;4700;48.822;9.270;2023-03-13T07:55:40;13.30;1.00
9323;DHT22;4700;48.822;9.270;2023-03-13T07:58:29;13.30;1.00
9323;DHT22;4700;48.822;9.270;2023-03-13T08:01:16;13.40;1.00
9323;DHT22;4700;48.822;9.270;2023-03-13T08:04:02;13.50;1.00
9323;DHT22;4700;48.822;9.270;2023-03-13T08:06:48;13.50;1.00
9323;DHT22;4700;48.822;9.270;2023-03-13T08:09:35;13.70;1.00
9323;DHT22;4700;48.822;9.270;2023-03-13T08:12:21;13.70;1.00
9323;DHT22;4700;48.822;9.270;2023-03-13T08:15:09;14.00;1.00
9323;DHT22;4700;48.822;9.270;2023-03-13T08:17:55;14.00;1.00
9323;DHT22;4700;48.822;9.270;2023-03-13T08:20:41;14.10;1.00
9323;DHT22;4700;48.822;9.270;2023-03-13T08:23:26;14.40;1.00
9323;DHT22;4700;48.822;9.270;2023-03-13T08:26:16;14.50;1.00
9323;DHT22;4700;48.822;9.270;2023-03-13T08:29:04;15.10;1.00
9323;DHT22;4700;48.822;9.270;2023-03-13T08:31:52;15.50;1.00
9323;DHT22;4700;48.822;9.270;2023-03-13T08:34:38;15.60;1.00
9323;DHT22;4700;48.822;9.270;2023-03-13T08:37:24;16.10;1.00
9323;DHT22;4700;48.822;9.270;2023-03-13T08:40:13;16.40;1.00
9323;DHT22;4700;48.822;9.270;2023-03-13T08:42:59;16.70;1.00
9323;DHT22;4700;48.822;9.270;2023-03-13T08:45:45;17.00;1.00
9323;DHT22;4700;48.822;9.270;2023-03-13T08:48:32;17.10;1.00
9323;DHT22;4700;48.822;9.270;2023-03-13T08:51:19;17.40;1.00
9323;DHT22;4700;48.822;9.270;2023-03-13T08:54:05;17.40;1.00
9323;DHT22;4700;48.822;9.270;2023-03-13T08:56:54;17.00;1.00
9323;DHT22;4700;48.822;9.270;2023-03-13T08:59:43;16.70;1.00
9323;DHT22;4700;48.822;9.270;2023-03-13T09:02:31;16.80;1.00
9323;DHT22;4700;48.822;9.270;2023-03-13T09:05:18;16.50;1.00
9323;DHT22;4700;48.822;9.270;2023-03-13T09:08:04;16.20;1.00
9323;DHT22;4700;48.822;9.270;2023-03-13T09:10:55;15.90;1.00
9323;DHT22;4700;48.822;9.270;2023-03-13T09:13:44;15.90;1.00
9323;DHT22;4700;48.822;9.270;2023-03-13T09:16:32;15.80;1.00
9323;DHT22;4700;48.822;9.270;2023-03-13T09:19:19;15.90;1.00
9323;DHT22;4700;48.822;9.270;2023-03-13T09:22:06;16.00;1.00
9323;DHT22;4700;48.822;9.270;2023-03-13T09:24:53;16.10;1.00
9323;DHT22;4700;48.822;9.270;2023-03-13T09:27:39;16.20;1.00
9323;DHT22;4700;48.822;9.270;2023-03-13T09:30:25;16.20;1.00
9323;DHT22;4700;48.822;9.270;2023-03-13T09:33:16;16.40;1.00
9323;DHT22;4700;48.822;9.270;2023-03-13T09:36:06;16.90;1.00
9323;DHT22;4700;48.822;9.270;2023-03-13T09:38:56;17.20;1.00
9323;DHT22;4700;48.822;9.270;2023-03-13T09:41:46;17.10;1.00
9323;DHT22;4700;48.822;9.270;2023-03-13T09:44:39;17.30;1.00
9323;DHT22;4700;48.822;9.270;2023-03-13T09:47:34;17.20;1.00
9323;DHT22;4700;48.822;9.270;2023-03-13T09:50:28;17.10;1.00
9323;DHT22;4700;48.822;9.270;2023-03-13T09:53:23;16.90;1.00
9323;DHT22;4700;48.822;9.270;2023-03-13T09:56:24;16.80;1.00
9323;DHT22;4700;48.822;9.270;2023-03-13T09:59:21;16.80;1.00
9323;DHT22;4700;48.822;9.270;2023-03-13T10:02:18;16.90;1.00
9323;DHT22;4700;48.822;9.270;2023-03-13T10:05:12;17.40;1.00
9323;DHT22;4700;48.822;9.270;2023-03-13T10:08:07;17.70;1.00
9323;DHT22;4700;48.822;9.270;2023-03-13T10:11:01;18.20;1.00
9323;DHT22;4700;48.822;9.270;2023-03-13T10:13:55;18.20;1.00
9323;DHT22;4700;48.822;9.270;2023-03-13T10:16:47;18.40;1.00
9323;DHT22;4700;48.822;9.270;2023-03-13T10:19:40;18.10;1.00
9323;DHT22;4700;48.822;9.270;2023-03-13T10:22:28;17.90;1.00
9323;DHT22;4700;48.822;9.270;2023-03-13T10:25:24;18.00;1.00
9323;DHT22;4700;48.822;9.270;2023-03-13T10:28:15;18.00;1.00
9323;DHT22;4700;48.822;9.270;2023-03-13T10:31:07;18.10;1.00
9323;DHT22;4700;48.822;9.270;2023-03-13T10:34:06;18.20;1.00
9323;DHT22;4700;48.822;9.270;2023-03-13T10:36:56;18.30;1.00
9323;DHT22;4700;48.822;9.270;2023-03-13T10:39:42;18.40;1.00
9323;DHT22;4700;48.822;9.270;2023-03-13T10:42:32;18.30;1.00
9323;DHT22;4700;48.822;9.270;2023-03-13T10:45:21;18.50;1.00
9323;DHT22;4700;48.822;9.270;2023-03-13T10:48:14;18.50;1.00
9323;DHT22;4700;48.822;9.270;2023-03-13T10:51:00;18.70;1.00
9323;DHT22;4700;48.822;9.270;2023-03-13T10:53:46;18.80;1.00
9323;DHT22;4700;48.822;9.270;2023-03-13T10:56:32;18.70;1.00
9323;DHT22;4700;48.822;9.270;2023-03-13T10:59:21;18.70;1.00
9323;DHT22;4700;48.822;9.270;2023-03-13T11:02:22;18.70;1.00
9323;DHT22;4700;48.822;9.270;2023-03-13T11:05:37;18.80;1.00
9323;DHT22;4700;48.822;9.270;2023-03-13T11:08:40;18.80;1.00
9323;DHT22;4700;48.822;9.270;2023-03-13T11:11:54;18.80;1.00
9323;DHT22;4700;48.822;9.270;2023-03-13T11:17:45;18.60;1.00
9323;DHT22;4700;48.822;9.270;2023-03-13T11:20:46;18.90;1.00
9323;DHT22;4700;48.822;9.270;2023-03-13T11:23:42;18.70;1.00
9323;DHT22;4700;48.822;9.270;2023-03-13T11:26:39;18.90;1.00
9323;DHT22;4700;48.822;9.270;2023-03-13T11:29:35;19.30;1.00
9323;DHT22;4700;48.822;9.270;2023-03-13T11:32:32;19.40;1.00
9323;DHT22;4700;48.822;9.270;2023-03-13T11:35:38;19.40;1.00
9323;DHT22;4700;48.822;9.270;2023-03-13T11:38:30;19.30;1.00
9323;DHT22;4700;48.822;9.270;2023-03-13T11:41:43;19.30;1.00
9323;DHT22;4700;48.822;9.270;2023-03-13T11:44:43;19.10;1.00
9323;DHT22;4700;48.822;9.270;2023-03-13T11:47:51;18.80;1.00
9323;DHT22;4700;48.822;9.270;2023-03-13T11:50:46;18.90;1.00
9323;DHT22;4700;48.822;9.270;2023-03-13T11:53:46;18.80;1.00
9323;DHT22;4700;48.822;9.270;2023-03-13T11:56:48;18.80;1.00
9323;DHT22;4700;48.822;9.270;2023-03-13T11:59:53;19.00;1.00
9323;DHT22;4700;48.822;9.270;2023-03-13T12:02:48;19.10;1.00
9323;DHT22;4700;48.822;9.270;2023-03-13T12:05:40;19.30;1.00
9323;DHT22;4700;48.822;9.270;2023-03-13T12:08:34;19.30;1.00
9323;DHT22;4700;48.822;9.270;2023-03-13T12:11:26;19.40;1.00
9323;DHT22;4700;48.822;9.270;2023-03-13T12:14:16;19.60;1.00
9323;DHT22;4700;48.822;9.270;2023-03-13T12:17:08;19.60;1.00
9323;DHT22;4700;48.822;9.270;2023-03-13T12:20:00;19.90;1.00
9323;DHT22;4700;48.822;9.270;2023-03-13T12:22:56;19.90;1.00
9323;DHT22;4700;48.822;9.270;2023-03-13T12:25:49;19.90;1.00
9323;DHT22;4700;48.822;9.270;2023-03-13T12:28:42;19.90;1.00
9323;DHT22;4700;48.822;9.270;2023-03-13T12:31:33;20.10;1.00
9323;DHT22;4700;48.822;9.270;2023-03-13T12:34:25;19.60;1.00
9323;DHT22;4700;48.822;9.270;2023-03-13T12:37:20;19.80;1.00
9323;DHT22;4700;48.822;9.270;2023-03-13T12:40:15;19.60;1.00
9323;DHT22;4700;48.822;9.270;2023-03-13T12:43:05;19.60;1.00
9323;DHT22;4700;48.822;9.270;2023-03-13T12:56:22;19.80;1.00
9323;DHT22;4700;48.822;9.270;2023-03-13T12:59:15;19.80;1.00
9323;DHT22;4700;48.822;9.270;2023-03-13T13:02:15;19.80;1.00
9323;DHT22;4700;48.822;9.270;2023-03-13T13:05:02;20.00;1.00
9323;DHT22;4700;48.822;9.270;2023-03-13T13:07:55;20.10;1.00
9323;DHT22;4700;48.822;9.270;2023-03-13T13:10:41;20.10;1.00
9323;DHT22;4700;48.822;9.270;2023-03-13T13:13:30;20.20;1.00
9323;DHT22;4700;48.822;9.270;2023-03-13T13:16:18;20.40;1.00
9323;DHT22;4700;48.822;9.270;2023-03-13T13:19:44;20.50;1.00
9323;DHT22;4700;48.822;9.270;2023-03-13T13:29:56;21.40;1.00
9323;DHT22;4700;48.822;9.270;2023-03-13T13:32:44;21.40;1.00
9323;DHT22;4700;48.822;9.270;2023-03-13T13:35:33;21.40;1.00
9323;DHT22;4700;48.822;9.270;2023-03-13T13:38:30;21.20;1.00
9323;DHT22;4700;48.822;9.270;2023-03-13T13:41:25;21.40;1.00
9323;DHT22;4700;48.822;9.270;2023-03-13T13:44:23;21.60;1.00
9323;DHT22;4700;48.822;9.270;2023-03-13T13:47:22;21.70;1.00
9323;DHT22;4700;48.822;9.270;2023-03-13T13:50:17;21.70;1.00
9323;DHT22;4700;48.822;9.270;2023-03-13T13:53:30;21.70;1.00
9323;DHT22;4700;48.822;9.270;2023-03-13T13:56:38;21.60;1.00
9323;DHT22;4700;48.822;9.270;2023-03-13T13:59:43;21.50;1.00
9323;DHT22;4700;48.822;9.270;2023-03-13T14:02:31;21.60;1.00
9323;DHT22;4700;48.822;9.270;2023-03-13T14:05:22;21.30;1.00
9323;DHT22;4700;48.822;9.270;2023-03-13T14:08:18;21.30;1.00
9323;DHT22;4700;48.822;9.270;2023-03-13T14:11:21;21.40;1.00
9323;DHT22;4700;48.822;9.270;2023-03-13T14:14:13;21.20;1.00
9323;DHT22;4700;48.822;9.270;2023-03-13T14:17:08;21.30;1.00
9323;DHT22;4700;48.822;9.270;2023-03-13T14:19:55;21.30;1.00
9323;DHT22;4700;48.822;9.270;2023-03-13T14:22:46;21.50;1.00
9323;DHT22;4700;48.822;9.270;2023-03-13T14:25:43;21.60;1.00
9323;DHT22;4700;48.822;9.270;2023-03-13T14:28:47;21.50;1.00
9323;DHT22;4700;48.822;9.270;2023-03-13T14:31:50;21.60;1.00
9323;DHT22;4700;48.822;9.270;2023-03-13T14:34:37;21.60;1.00
9323;DHT22;4700;48.822;9.270;2023-03-13T14:37:34;21.70;1.00
9323;DHT22;4700;48.822;9.270;2023-03-13T14:40:24;21.80;1.00
9323;DHT22;4700;48.822;9.270;2023-03-13T14:43:22;22.00;1.00
9323;DHT22;4700;48.822;9.270;2023-03-13T14:46:28;22.00;1.00
9323;DHT22;4700;48.822;9.270;2023-03-13T14:49:17;22.10;1.00
9323;DHT22;4700;48.822;9.270;2023-03-13T14:52:06;22.10;1.00
9323;DHT22;4700;48.822;9.270;2023-03-13T14:55:03;22.10;1.00
9323;DHT22;4700;48.822;9.270;2023-03-13T14:57:54;21.90;1.00
9323;DHT22;4700;48.822;9.270;2023-03-13T15:00:42;21.90;1.00
9323;DHT22;4700;48.822;9.270;2023-03-13T15:03:32;21.90;1.00
9323;DHT22;4700;48.822;9.270;2023-03-13T15:06:23;21.90;1.00
9323;DHT22;4700;48.822;9.270;2023-03-13T15:09:18;21.80;1.00
9323;DHT22;4700;48.822;9.270;2023-03-13T15:12:10;22.10;1.00
9323;DHT22;4700;48.822;9.270;2023-03-13T15:14:57;21.70;1.00
9323;DHT22;4700;48.822;9.270;2023-03-13T15:17:46;21.90;1.00
9323;DHT22;4700;48.822;9.270;2023-03-13T15:20:33;22.00;1.00
9323;DHT22;4700;48.822;9.270;2023-03-13T15:23:20;21.90;1.00
9323;DHT22;4700;48.822;9.270;2023-03-13T15:26:07;21.90;1.00
9323;DHT22;4700;48.822;9.270;2023-03-13T15:28:56;21.80;1.00
9323;DHT22;4700;48.822;9.270;2023-03-13T15:31:42;21.70;1.00
9323;DHT22;4700;48.822;9.270;2023-03-13T15:34:28;21.60;1.00
9323;DHT22;4700;48.822;9.270;2023-03-13T15:37:18;21.50;1.00
9323;DHT22;4700;48.822;9.270;2023-03-13T15:40:08;21.50;1.00
9323;DHT22;4700;48.822;9.270;2023-03-13T15:42:58;21.60;1.00
9323;DHT22;4700;48.822;9.270;2023-03-13T15:45:44;21.40;1.00
9323;DHT22;4700;48.822;9.270;2023-03-13T15:48:31;21.40;1.00
9323;DHT22;4700;48.822;9.270;2023-03-13T15:51:17;21.10;1.00
9323;DHT22;4700;48.822;9.270;2023-03-13T15:54:05;21.00;1.00
9323;DHT22;4700;48.822;9.270;2023-03-13T15:56:51;21.10;1.00
9323;DHT22;4700;48.822;9.270;2023-03-13T15:59:37;21.00;1.00
9323;DHT22;4700;48.822;9.270;2023-03-13T16:02:23;21.10;1.00
9323;DHT22;4700;48.822;9.270;2023-03-13T16:05:12;21.10;1.00
9323;DHT22;4700;48.822;9.270;2023-03-13T16:07:58;21.10;1.00
9323;DHT22;4700;48.822;9.270;2023-03-13T16:10:46;21.10;1.00
9323;DHT22;4700;48.822;9.270;2023-03-13T16:13:32;21.10;1.00
9323;DHT22;4700;48.822;9.270;2023-03-13T16:16:19;21.00;1.00
9323;DHT22;4700;48.822;9.270;2023-03-13T16:18:45;21.10;1.00
9323;DHT22;4700;48.822;9.270;2023-03-13T16:21:32;20.80;1.00
9323;DHT22;4700;48.822;9.270;2023-03-13T16:24:22;20.80;1.00
9323;DHT22;4700;48.822;9.270;2023-03-13T16:27:14;20.80;1.00
9323;DHT22;4700;48.822;9.270;2023-03-13T16:30:00;20.60;1.00
9323;DHT22;4700;48.822;9.270;2023-03-13T16:32:47;20.60;1.00
9323;DHT22;4700;48.822;9.270;2023-03-13T16:35:33;20.40;1.00
9323;DHT22;4700;48.822;9.270;2023-03-13T16:38:19;20.30;1.00
9323;DHT22;4700;48.822;9.270;2023-03-13T16:41:05;20.10;1.00
9323;DHT22;4700;48.822;9.270;2023-03-13T16:43:53;19.90;1.00
9323;DHT22;4700;48.822;9.270;2023-03-13T16:46:41;19.60;1.00
9323;DHT22;4700;48.822;9.270;2023-03-13T16:49:27;19.50;1.00
9323;DHT22;4700;48.822;9.270;2023-03-13T16:52:17;19.30;1.00
9323;DHT22;4700;48.822;9.270;2023-03-13T16:55:05;19.10;1.00
9323;DHT22;4700;48.822;9.270;2023-03-13T16:57:50;19.10;1.00
9323;DHT22;4700;48.822;9.270;2023-03-13T17:00:39;18.90;1.00
9323;DHT22;4700;48.822;9.270;2023-03-13T17:03:25;18.80;1.00
9323;DHT22;4700;48.822;9.270;2023-03-13T17:06:19;18.70;1.00
9323;DHT22;4700;48.822;9.270;2023-03-13T17:09:10;18.60;1.00
9323;DHT22;4700;48.822;9.270;2023-03-13T17:11:56;18.50;1.00
9323;DHT22;4700;48.822;9.270;2023-03-13T17:14:42;18.50;1.00
9323;DHT22;4700;48.822;9.270;2023-03-13T17:17:29;18.20;1.00
9323;DHT22;4700;48.822;9.270;2023-03-13T17:20:21;18.20;1.00
9323;DHT22;4700;48.822;9.270;2023-03-13T17:23:08;18.10;1.00
9323;DHT22;4700;48.822;9.270;2023-03-13T17:25:54;18.10;1.00
9323;DHT22;4700;48.822;9.270;2023-03-13T17:28:40;18.00;1.00
9323;DHT22;4700;48.822;9.270;2023-03-13T17:31:27;17.90;1.00
9323;DHT22;4700;48.822;9.270;2023-03-13T17:34:16;17.70;1.00
9323;DHT22;4700;48.822;9.270;2023-03-13T17:37:04;17.70;1.00
9323;DHT22;4700;48.822;9.270;2023-03-13T17:39:50;17.80;1.00
9323;DHT22;4700;48.822;9.270;2023-03-13T17:42:36;17.60;1.00
9323;DHT22;4700;48.822;9.270;2023-03-13T17:45:23;17.60;1.00
9323;DHT22;4700;48.822;9.270;2023-03-13T17:48:11;17.60;1.00
9323;DHT22;4700;48.822;9.270;2023-03-13T17:50:58;17.60;1.00
9323;DHT22;4700;48.822;9.270;2023-03-13T17:53:44;17.40;1.00
9323;DHT22;4700;48.822;9.270;2023-03-13T17:56:31;17.50;1.00
9323;DHT22;4700;48.822;9.270;2023-03-13T17:59:19;17.30;1.00
9323;DHT22;4700;48.822;9.270;2023-03-13T18:02:07;17.40;1.00
9323;DHT22;4700;48.822;9.270;2023-03-13T18:04:52;17.30;1.00
9323;DHT22;4700;48.822;9.270;2023-03-13T18:07:40;17.30;1.00
9323;DHT22;4700;48.822;9.270;2023-03-13T18:10:29;17.20;1.00
9323;DHT22;4700;48.822;9.270;2023-03-13T18:13:18;17.30;1.00
9323;DHT22;4700;48.822;9.270;2023-03-13T18:16:20;17.30;1.00
9323;DHT22;4700;48.822;9.270;2023-03-13T18:19:10;17.20;1.00
9323;DHT22;4700;48.822;9.270;2023-03-13T18:21:58;17.10;1.00
9323;DHT22;4700;48.822;9.270;2023-03-13T18:24:45;17.20;1.00
9323;DHT22;4700;48.822;9.270;2023-03-13T18:27:31;17.10;1.00
9323;DHT22;4700;48.822;9.270;2023-03-13T18:30:19;17.20;1.00
9323;DHT22;4700;48.822;9.270;2023-03-13T18:33:05;17.00;1.00
9323;DHT22;4700;48.822;9.270;2023-03-13T18:35:51;17.10;1.00
9323;DHT22;4700;48.822;9.270;2023-03-13T18:38:37;17.10;1.00
9323;DHT22;4700;48.822;9.270;2023-03-13T18:41:24;17.10;1.00
9323;DHT22;4700;48.822;9.270;2023-03-13T18:44:10;16.70;1.00
9323;DHT22;4700;48.822;9.270;2023-03-13T18:46:59;16.40;1.00
9323;DHT22;4700;48.822;9.270;2023-03-13T18:49:45;15.80;1.00
9323;DHT22;4700;48.822;9.270;2023-03-13T18:52:31;14.70;1.00
9323;DHT22;4700;48.822;9.270;2023-03-13T18:55:18;14.60;1.00
9323;DHT22;4700;48.822;9.270;2023-03-13T18:58:05;14.10;1.00
9323;DHT22;4700;48.822;9.270;2023-03-13T19:00:50;13.60;1.00
9323;DHT22;4700;48.822;9.270;2023-03-13T19:03:36;13.20;1.00